DLH6M EDDF-LIRF
Flight info
| Callsign | DLH6M |
|---|---|
| Flight time | N/A |
| Altitude | 23000 |
| Route | CINDY8S/18 CINDY Z74 LAMPU/N0443F350 DCT NOMBO/N0446F370 Y161 RIDAR DCT KONIN DCT BERAS DCT LIKDA DCT BAKOR DCT VESAL DCT VIC DCT KOPER DCT SUKOM DCT GAVRA DCT RITEB |
| Aircraft | A321/M-SDE3FGHIRWY/LB1 |
Departure
| Time | 2026-05-04 13:27 |
|---|---|
| Airport | Frankfurt Main Airport (EDDF) |
Arrival
| Time | N/A |
|---|---|
| Airport | Rome–Fiumicino Leonardo da Vinci International Airport (LIRF) |
| Time | Latitude | Longitude | Altitude | Speed | Heading |
|---|---|---|---|---|---|
| 2026-05-04 13:24 | 50.02796 | 8.54778 | 339 ft | 29 kts | 250° |
| 2026-05-04 13:24 | 50.02725 | 8.54483 | 335 ft | 29 kts | 249° |
| 2026-05-04 13:25 | 50.02588 | 8.53877 | 335 ft | 31 kts | 251° |
| 2026-05-04 13:25 | 50.02517 | 8.53571 | 336 ft | 29 kts | 249° |
| 2026-05-04 13:25 | 50.02445 | 8.53276 | 335 ft | 29 kts | 249° |
| 2026-05-04 13:25 | 50.02374 | 8.52981 | 334 ft | 29 kts | 249° |
| 2026-05-04 13:26 | 50.02326 | 8.52781 | 334 ft | 0 kts | 250° |
| 2026-05-04 13:26 | 50.02326 | 8.52780 | 334 ft | 0 kts | 250° |
| 2026-05-04 13:26 | 50.02319 | 8.52748 | 331 ft | 8 kts | 250° |
| 2026-05-04 13:26 | 50.02293 | 8.52646 | 332 ft | 12 kts | 240° |
| 2026-05-04 13:27 | 50.02181 | 8.52599 | 335 ft | 36 kts | 180° |
| 2026-05-04 13:27 | 50.01665 | 8.52610 | 333 ft | 109 kts | 179° |
| 2026-05-04 13:27 | 50.00710 | 8.52615 | 423 ft | 156 kts | 179° |
| 2026-05-04 13:27 | 49.99649 | 8.52619 | 1173 ft | 151 kts | 184° |
| 2026-05-04 13:28 | 49.98585 | 8.52642 | 1901 ft | 154 kts | 183° |
| 2026-05-04 13:28 | 49.97470 | 8.52988 | 2270 ft | 176 kts | 161° |
| 2026-05-04 13:28 | 49.96351 | 8.54049 | 2542 ft | 203 kts | 140° |
| 2026-05-04 13:28 | 49.95440 | 8.55889 | 2795 ft | 229 kts | 121° |
| 2026-05-04 13:29 | 49.94623 | 8.58170 | 3061 ft | 254 kts | 120° |
| 2026-05-04 13:29 | 49.94052 | 8.60862 | 3590 ft | 271 kts | 97° |
| 2026-05-04 13:29 | 49.93939 | 8.63815 | 4323 ft | 277 kts | 94° |
| 2026-05-04 13:29 | 49.93821 | 8.66788 | 5113 ft | 282 kts | 97° |
| 2026-05-04 13:30 | 49.93197 | 8.69632 | 5904 ft | 283 kts | 125° |
| 2026-05-04 13:30 | 49.91807 | 8.71753 | 6658 ft | 281 kts | 147° |
| 2026-05-04 13:30 | 49.90229 | 8.73483 | 7496 ft | 281 kts | 147° |
| 2026-05-04 13:30 | 49.88683 | 8.75331 | 8365 ft | 283 kts | 136° |
| 2026-05-04 13:31 | 49.87564 | 8.77837 | 9204 ft | 286 kts | 122° |
| 2026-05-04 13:31 | 49.86589 | 8.80522 | 10045 ft | 286 kts | 122° |
| 2026-05-04 13:31 | 49.85620 | 8.83226 | 10714 ft | 289 kts | 122° |
| 2026-05-04 13:31 | 49.84645 | 8.85947 | 11443 ft | 290 kts | 122° |
| 2026-05-04 13:32 | 49.83671 | 8.88648 | 12113 ft | 293 kts | 122° |
| 2026-05-04 13:32 | 49.82670 | 8.91408 | 12774 ft | 296 kts | 122° |
| 2026-05-04 13:32 | 49.81654 | 8.94202 | 13491 ft | 300 kts | 122° |
| 2026-05-04 13:32 | 49.80619 | 8.97047 | 14198 ft | 305 kts | 122° |
| 2026-05-04 13:33 | 49.79565 | 8.99925 | 14729 ft | 315 kts | 123° |
| 2026-05-04 13:33 | 49.78446 | 9.02971 | 14860 ft | 336 kts | 122° |
| 2026-05-04 13:33 | 49.77262 | 9.06202 | 14981 ft | 354 kts | 121° |
| 2026-05-04 13:33 | 49.76208 | 9.09759 | 15100 ft | 373 kts | 112° |
| 2026-05-04 13:34 | 49.75467 | 9.13644 | 15220 ft | 390 kts | 107° |
| 2026-05-04 13:34 | 49.74540 | 9.17637 | 15350 ft | 400 kts | 118° |
| 2026-05-04 13:34 | 49.73110 | 9.21384 | 15475 ft | 410 kts | 128° |
| 2026-05-04 13:34 | 49.71262 | 9.24808 | 15675 ft | 418 kts | 134° |
| 2026-05-04 13:35 | 49.69310 | 9.28169 | 16057 ft | 422 kts | 134° |
| 2026-05-04 13:35 | 49.65411 | 9.35046 | 16928 ft | 429 kts | 133° |
| 2026-05-04 13:35 | 49.63444 | 9.38528 | 17361 ft | 431 kts | 135° |
| 2026-05-04 13:36 | 49.61287 | 9.41649 | 17766 ft | 431 kts | 144° |
| 2026-05-04 13:36 | 49.58804 | 9.44233 | 18176 ft | 432 kts | 152° |
| 2026-05-04 13:36 | 49.56213 | 9.46594 | 18514 ft | 435 kts | 152° |
| 2026-05-04 13:36 | 49.53603 | 9.48973 | 18852 ft | 437 kts | 152° |
| 2026-05-04 13:37 | 49.50977 | 9.51370 | 19215 ft | 440 kts | 152° |
| 2026-05-04 13:37 | 49.48338 | 9.53779 | 19592 ft | 442 kts | 152° |
| 2026-05-04 13:37 | 49.45689 | 9.56196 | 19973 ft | 444 kts | 152° |
| 2026-05-04 13:37 | 49.43928 | 9.57802 | 20228 ft | 445 kts | 152° |
| 2026-05-04 13:38 | 49.40405 | 9.61009 | 20732 ft | 448 kts | 152° |
| 2026-05-04 13:38 | 49.37717 | 9.63449 | 21114 ft | 450 kts | 152° |
| 2026-05-04 13:38 | 49.35039 | 9.65960 | 21455 ft | 454 kts | 148° |
| 2026-05-04 13:38 | 49.32564 | 9.69005 | 21790 ft | 460 kts | 140° |
| 2026-05-04 13:39 | 49.30289 | 9.72474 | 22122 ft | 463 kts | 138° |
| 2026-05-04 13:39 | 49.28008 | 9.75981 | 22441 ft | 465 kts | 138° |
| 2026-05-04 13:39 | 49.25720 | 9.79484 | 22757 ft | 467 kts | 138° |
| 2026-05-04 13:39 | 49.23412 | 9.83002 | 23040 ft | 469 kts | 138° |
| 2026-05-04 13:40 | 49.21098 | 9.86516 | 23325 ft | 470 kts | 138° |
| 2026-05-04 13:40 | 49.18767 | 9.90044 | 23595 ft | 472 kts | 139° |
| 2026-05-04 13:40 | 49.16464 | 9.93526 | 23797 ft | 474 kts | 138° |
| 2026-05-04 13:40 | 49.14125 | 9.97069 | 24102 ft | 473 kts | 138° |
| 2026-05-04 13:41 | 49.11789 | 10.00610 | 24407 ft | 472 kts | 139° |
| 2026-05-04 13:41 | 49.09458 | 10.04135 | 24702 ft | 472 kts | 139° |
| 2026-05-04 13:41 | 49.07132 | 10.07644 | 24971 ft | 472 kts | 139° |
| 2026-05-04 13:42 | 49.02405 | 10.14583 | 25596 ft | 471 kts | 140° |
| 2026-05-04 13:42 | 49.00002 | 10.17961 | 25917 ft | 470 kts | 141° |
| 2026-05-04 13:42 | 48.97615 | 10.21271 | 26206 ft | 470 kts | 141° |
| 2026-05-04 13:42 | 48.95198 | 10.24618 | 26562 ft | 470 kts | 141° |
| 2026-05-04 13:43 | 48.92785 | 10.27978 | 26936 ft | 470 kts | 141° |
| 2026-05-04 13:43 | 48.90386 | 10.31343 | 27274 ft | 469 kts | 141° |
| 2026-05-04 13:43 | 48.87991 | 10.34716 | 27591 ft | 469 kts | 140° |
| 2026-05-04 13:43 | 48.85609 | 10.38083 | 27917 ft | 468 kts | 140° |
| 2026-05-04 13:44 | 48.83222 | 10.41458 | 28246 ft | 468 kts | 140° |
| 2026-05-04 13:44 | 48.80888 | 10.44896 | 28576 ft | 468 kts | 138° |
| 2026-05-04 13:44 | 48.78620 | 10.48450 | 28892 ft | 469 kts | 137° |
| 2026-05-04 13:44 | 48.76428 | 10.52021 | 29206 ft | 468 kts | 136° |
| 2026-05-04 13:45 | 48.74228 | 10.55657 | 29524 ft | 468 kts | 136° |
| 2026-05-04 13:45 | 48.72028 | 10.59287 | 29846 ft | 468 kts | 136° |
| 2026-05-04 13:45 | 48.69811 | 10.62901 | 30154 ft | 467 kts | 136° |
| 2026-05-04 13:45 | 48.67580 | 10.66479 | 30434 ft | 467 kts | 137° |
| 2026-05-04 13:46 | 48.65347 | 10.70020 | 30720 ft | 466 kts | 137° |
| 2026-05-04 13:46 | 48.63104 | 10.73556 | 31016 ft | 465 kts | 137° |
| 2026-05-04 13:46 | 48.60861 | 10.77066 | 31301 ft | 463 kts | 139° |
| 2026-05-04 13:46 | 48.58457 | 10.80154 | 31576 ft | 458 kts | 148° |
| 2026-05-04 13:47 | 48.55773 | 10.82694 | 31855 ft | 453 kts | 156° |
| 2026-05-04 13:47 | 48.52989 | 10.84860 | 32181 ft | 451 kts | 156° |
| 2026-05-04 13:47 | 48.50203 | 10.87028 | 32464 ft | 450 kts | 156° |
| 2026-05-04 13:47 | 48.47424 | 10.89198 | 32735 ft | 450 kts | 156° |
| 2026-05-04 13:48 | 48.44648 | 10.91370 | 33011 ft | 449 kts | 156° |
| 2026-05-04 13:48 | 48.41872 | 10.93539 | 33284 ft | 449 kts | 156° |
| 2026-05-04 13:48 | 48.39104 | 10.95696 | 33561 ft | 449 kts | 156° |
| 2026-05-04 13:48 | 48.36336 | 10.97847 | 33844 ft | 448 kts | 156° |
| 2026-05-04 13:49 | 48.33599 | 10.99968 | 34094 ft | 448 kts | 156° |
| 2026-05-04 13:49 | 48.30835 | 11.02109 | 34325 ft | 447 kts | 156° |
| 2026-05-04 13:49 | 48.28073 | 11.04244 | 34552 ft | 447 kts | 156° |
| 2026-05-04 13:49 | 48.25307 | 11.06382 | 34787 ft | 447 kts | 156° |
| 2026-05-04 13:50 | 48.22544 | 11.08515 | 35017 ft | 446 kts | 156° |
| 2026-05-04 13:50 | 48.19784 | 11.10643 | 35237 ft | 446 kts | 156° |
| 2026-05-04 13:50 | 48.17025 | 11.12769 | 35455 ft | 446 kts | 156° |
| 2026-05-04 13:50 | 48.14268 | 11.14891 | 35677 ft | 446 kts | 156° |
| 2026-05-04 13:51 | 48.11544 | 11.16984 | 35885 ft | 446 kts | 156° |
| 2026-05-04 13:51 | 48.08750 | 11.19128 | 36112 ft | 445 kts | 156° |
| 2026-05-04 13:51 | 48.06034 | 11.21210 | 36356 ft | 444 kts | 156° |
| 2026-05-04 13:51 | 48.03281 | 11.23312 | 36555 ft | 444 kts | 156° |
| 2026-05-04 13:52 | 47.97782 | 11.27510 | 36932 ft | 444 kts | 156° |
| 2026-05-04 13:52 | 47.95022 | 11.29620 | 36976 ft | 447 kts | 156° |
| 2026-05-04 13:53 | 47.89446 | 11.33874 | 36972 ft | 452 kts | 156° |
| 2026-05-04 13:53 | 47.83883 | 11.38117 | 36965 ft | 453 kts | 155° |
| 2026-05-04 13:54 | 47.75588 | 11.44879 | 36946 ft | 454 kts | 154° |
| 2026-05-04 13:55 | 47.67289 | 11.51725 | 36951 ft | 456 kts | 154° |
| 2026-05-04 13:55 | 47.58970 | 11.58455 | 36960 ft | 456 kts | 154° |
| 2026-05-04 13:56 | 47.53391 | 11.62941 | 36969 ft | 456 kts | 154° |
| 2026-05-04 13:57 | 47.45032 | 11.69670 | 36975 ft | 456 kts | 154° |
| 2026-05-04 13:58 | 47.33460 | 11.76495 | 36978 ft | 447 kts | 177° |
| 2026-05-04 13:58 | 47.24198 | 11.76276 | 36988 ft | 444 kts | 185° |
| 2026-05-04 13:59 | 47.18029 | 11.75959 | 36994 ft | 444 kts | 184° |
| 2026-05-04 14:00 | 47.08818 | 11.75482 | 37025 ft | 443 kts | 184° |
| 2026-05-04 14:00 | 46.99584 | 11.74977 | 37039 ft | 443 kts | 185° |
| 2026-05-04 14:01 | 46.93425 | 11.74633 | 37033 ft | 443 kts | 185° |
| 2026-05-04 14:02 | 46.84206 | 11.74127 | 37041 ft | 445 kts | 185° |
| 2026-05-04 14:02 | 46.78019 | 11.73787 | 37039 ft | 445 kts | 185° |
| 2026-05-04 14:03 | 46.71821 | 11.73452 | 37043 ft | 445 kts | 185° |
| 2026-05-04 14:03 | 46.65627 | 11.73123 | 37044 ft | 446 kts | 185° |
| 2026-05-04 14:04 | 46.56363 | 11.72617 | 37049 ft | 446 kts | 185° |
| 2026-05-04 14:04 | 46.50164 | 11.72261 | 37056 ft | 446 kts | 185° |
| 2026-05-04 14:05 | 46.40872 | 11.71740 | 37061 ft | 445 kts | 185° |
| 2026-05-04 14:06 | 46.34719 | 11.71402 | 37068 ft | 445 kts | 185° |
| 2026-05-04 14:06 | 46.28533 | 11.71075 | 37076 ft | 445 kts | 185° |
| 2026-05-04 14:07 | 46.22336 | 11.70744 | 37080 ft | 445 kts | 185° |
| 2026-05-04 14:07 | 46.16142 | 11.70417 | 37084 ft | 445 kts | 185° |
| 2026-05-04 14:08 | 46.09951 | 11.70081 | 37081 ft | 445 kts | 185° |
| 2026-05-04 14:08 | 46.03801 | 11.69746 | 37077 ft | 445 kts | 185° |
| 2026-05-04 14:09 | 45.94511 | 11.69255 | 37080 ft | 445 kts | 185° |
| 2026-05-04 14:10 | 45.85233 | 11.68772 | 37081 ft | 445 kts | 185° |
| 2026-05-04 14:10 | 45.79094 | 11.68451 | 37076 ft | 445 kts | 185° |
| 2026-05-04 14:11 | 45.72907 | 11.68126 | 37073 ft | 445 kts | 185° |
| 2026-05-04 14:11 | 45.63622 | 11.67623 | 37075 ft | 445 kts | 185° |
| 2026-05-04 14:12 | 45.57431 | 11.67234 | 37082 ft | 445 kts | 186° |
| 2026-05-04 14:13 | 45.48209 | 11.66513 | 37075 ft | 444 kts | 186° |
| 2026-05-04 14:13 | 45.42036 | 11.66052 | 37076 ft | 444 kts | 186° |
| 2026-05-04 14:14 | 45.35858 | 11.65608 | 37068 ft | 444 kts | 186° |
| 2026-05-04 14:14 | 45.26613 | 11.64937 | 37069 ft | 446 kts | 186° |
| 2026-05-04 14:15 | 45.14204 | 11.64099 | 37065 ft | 448 kts | 184° |
| 2026-05-04 14:16 | 45.05887 | 11.64383 | 37075 ft | 450 kts | 180° |
| 2026-05-04 14:17 | 44.95484 | 11.65111 | 37069 ft | 450 kts | 181° |
| 2026-05-04 14:18 | 44.86078 | 11.65549 | 37076 ft | 451 kts | 181° |
| 2026-05-04 14:19 | 44.73545 | 11.66100 | 37072 ft | 453 kts | 182° |
| 2026-05-04 14:19 | 44.68270 | 11.66353 | 37077 ft | 453 kts | 182° |
| 2026-05-04 14:20 | 44.62001 | 11.66657 | 37088 ft | 454 kts | 182° |
| 2026-05-04 14:20 | 44.55689 | 11.66970 | 37069 ft | 455 kts | 180° |
| 2026-05-04 14:21 | 44.46212 | 11.68801 | 37086 ft | 459 kts | 176° |
| 2026-05-04 14:21 | 44.39926 | 11.70066 | 37090 ft | 459 kts | 176° |
| 2026-05-04 14:22 | 44.33595 | 11.71339 | 37101 ft | 460 kts | 176° |
| 2026-05-04 14:22 | 44.27257 | 11.72615 | 37100 ft | 461 kts | 176° |
| 2026-05-04 14:23 | 44.17733 | 11.74514 | 37108 ft | 461 kts | 176° |
| 2026-05-04 14:24 | 44.11385 | 11.75774 | 37111 ft | 461 kts | 176° |
| 2026-05-04 14:24 | 44.05077 | 11.77027 | 37114 ft | 461 kts | 176° |
| 2026-05-04 14:25 | 43.98720 | 11.78288 | 37106 ft | 461 kts | 176° |
| 2026-05-04 14:25 | 43.89182 | 11.80176 | 37123 ft | 462 kts | 176° |
| 2026-05-04 14:26 | 43.82876 | 11.81431 | 37098 ft | 453 kts | 176° |
| 2026-05-04 14:26 | 43.79815 | 11.82050 | 37085 ft | 437 kts | 177° |
| 2026-05-04 14:26 | 43.76846 | 11.82600 | 37106 ft | 423 kts | 183° |
| 2026-05-04 14:27 | 43.73963 | 11.82341 | 37117 ft | 409 kts | 199° |
| 2026-05-04 14:27 | 43.71328 | 11.81060 | 37112 ft | 398 kts | 214° |
| 2026-05-04 14:27 | 43.69071 | 11.78925 | 37111 ft | 390 kts | 227° |
| 2026-05-04 14:27 | 43.67307 | 11.76139 | 37115 ft | 383 kts | 241° |
| 2026-05-04 14:28 | 43.66112 | 11.72890 | 37110 ft | 378 kts | 254° |
| 2026-05-04 14:28 | 43.65533 | 11.69378 | 37108 ft | 375 kts | 266° |
| 2026-05-04 14:28 | 43.65575 | 11.65842 | 37113 ft | 375 kts | 278° |
| 2026-05-04 14:28 | 43.66242 | 11.62368 | 37111 ft | 376 kts | 291° |
| 2026-05-04 14:29 | 43.69331 | 11.56518 | 37104 ft | 386 kts | 317° |
| 2026-05-04 14:29 | 43.74237 | 11.53306 | 37098 ft | 402 kts | 341° |
| 2026-05-04 14:30 | 43.79786 | 11.51978 | 37104 ft | 407 kts | 347° |
| 2026-05-04 14:31 | 43.88252 | 11.50840 | 37100 ft | 415 kts | 358° |
| 2026-05-04 14:31 | 43.93834 | 11.53158 | 37090 ft | 433 kts | 30° |
| 2026-05-04 14:32 | 43.97788 | 11.59507 | 37090 ft | 447 kts | 65° |
| 2026-05-04 14:32 | 43.98630 | 11.63668 | 37080 ft | 449 kts | 84° |
| 2026-05-04 14:32 | 43.98559 | 11.67991 | 37108 ft | 451 kts | 102° |
| 2026-05-04 14:32 | 43.97605 | 11.72119 | 37094 ft | 450 kts | 120° |
| 2026-05-04 14:33 | 43.95879 | 11.75626 | 37096 ft | 444 kts | 138° |
| 2026-05-04 14:33 | 43.93511 | 11.78295 | 37102 ft | 436 kts | 155° |
| 2026-05-04 14:33 | 43.90755 | 11.79894 | 37117 ft | 426 kts | 171° |
| 2026-05-04 14:34 | 43.84950 | 11.81405 | 37100 ft | 423 kts | 178° |
| 2026-05-04 14:34 | 43.79114 | 11.82342 | 37100 ft | 422 kts | 179° |
| 2026-05-04 14:35 | 43.73427 | 11.82042 | 37098 ft | 404 kts | 203° |
| 2026-05-04 14:35 | 43.70892 | 11.80516 | 37090 ft | 393 kts | 218° |
| 2026-05-04 14:35 | 43.68790 | 11.78192 | 37096 ft | 384 kts | 232° |
| 2026-05-04 14:35 | 43.67239 | 11.75243 | 37089 ft | 377 kts | 246° |
| 2026-05-04 14:36 | 43.66307 | 11.71899 | 37091 ft | 372 kts | 259° |
| 2026-05-04 14:36 | 43.66014 | 11.68369 | 37089 ft | 370 kts | 272° |
| 2026-05-04 14:36 | 43.66368 | 11.64852 | 37094 ft | 371 kts | 285° |
| 2026-05-04 14:36 | 43.67346 | 11.61549 | 37089 ft | 375 kts | 298° |
| 2026-05-04 14:37 | 43.68892 | 11.58687 | 37089 ft | 380 kts | 311° |
| 2026-05-04 14:37 | 43.70976 | 11.56402 | 37084 ft | 388 kts | 325° |
| 2026-05-04 14:37 | 43.73479 | 11.54913 | 37088 ft | 397 kts | 340° |
| 2026-05-04 14:38 | 43.78958 | 11.53447 | 37093 ft | 405 kts | 346° |
| 2026-05-04 14:38 | 43.84579 | 11.52541 | 37107 ft | 408 kts | 348° |
| 2026-05-04 14:39 | 43.90242 | 11.52596 | 37094 ft | 421 kts | 9° |